Koyo — JD2279 — position and weather

sailwx.info

Track history (hours):
 
Tides and Currents Weather Stations Pressure Air Temp Water Temp Dewpoint Dewpoint Depression Visibility Wind Speed Wind Dir Waves Ship Positions

Koyo

Last reported at 2017-Mar-27 00:33 UTC. Time now 2017-Mar-27 00:40 UTC.
Position N 34°39' E 135°15'.

Length 80 m; draft 3.7 m.

Type: Cargo ship. MMSI: 431301812.

Date/timePositionNaut miles runAvg speedWind from/ knotsBaromVisibWave heightAir tempDewpointWater temp
2017-Mar-27 00:33N 34°39' E 135°15'0 0.1
2017-Mar-26 23:32N 34°39' E 135°15'0 0.0
2017-Mar-26 21:32N 34°39' E 135°15'0 0.0
2017-Mar-26 20:32N 34°39' E 135°15'0 0.1
2017-Mar-26 19:32N 34°39' E 135°15'0 0.1
2017-Mar-26 18:32N 34°39' E 135°15'0 0.0
2017-Mar-26 17:32N 34°39' E 135°15'0 0.1
2017-Mar-26 16:32N 34°39' E 135°15'0 0.0
2017-Mar-26 15:26N 34°39' E 135°15'0 0.1
2017-Mar-26 14:32N 34°39' E 135°15'0 0.0
2017-Mar-26 13:14N 34°39' E 135°15'0 0.5
2017-Mar-26 12:33N 34°38' E 135°15'1110.6
2017-Mar-26 11:33N 34°36' E 135°02'12011.5
2017-Mar-26 01:11N 33°59' E 132°44'913.2
2017-Mar-26 00:33N 33°54' E 132°37'19 0.6
2017-Mar-24 16:31N 33°50' E 132°15'1313.8
2017-Mar-24 15:33N 33°52' E 132°30'12812.7
2017-Mar-24 05:30N 34°37' E 134°56'1010.9
2017-Mar-24 04:33N 34°36' E 135°08'1312.8
2017-Mar-24 03:33N 34°38' E 135°24'1 1.2
2017-Mar-24 02:33N 34°38' E 135°25'6 5.9
2017-Mar-24 01:33N 34°37' E 135°18'4 3.8
2017-Mar-24 00:33N 34°39' E 135°15'1 0.8
2017-Mar-23 23:33N 34°40' E 135°14'1 1.5
2017-Mar-23 22:33N 34°39' E 135°15'10 9.8
2017-Mar-23 21:34N 34°35' E 135°05'9 9.4
2017-Mar-23 20:33N 34°35' E 134°53'121 5.4
2017-Mar-22 22:11N 34°03' E 132°32'11912.3
2017-Mar-22 12:31N 34°35' E 134°51'1111.2
2017-Mar-22 11:31N 34°36' E 135°04'9 9.6
2017-Mar-22 10:33N 34°39' E 135°15'0 0.0
2017-Mar-22 09:33N 34°39' E 135°15'0 0.0
2017-Mar-22 08:33N 34°39' E 135°15'0 0.0
2017-Mar-22 07:33N 34°39' E 135°15'1 0.6
2017-Mar-22 06:33N 34°39' E 135°15'0 0.0
2017-Mar-22 05:33N 34°39' E 135°15'0 0.1
2017-Mar-22 04:33N 34°39' E 135°15'0 0.0
2017-Mar-22 03:33N 34°39' E 135°15'0 0.0
2017-Mar-22 02:33N 34°39' E 135°15'0 0.0
2017-Mar-22 01:33N 34°39' E 135°15'0 0.0
2017-Mar-22 00:33N 34°39' E 135°15'1 0.7
2017-Mar-21 23:33N 34°39' E 135°15'1 0.9
2017-Mar-21 22:33N 34°38' E 135°15'0 0.0
2017-Mar-21 21:33N 34°38' E 135°15'6 5.7
2017-Mar-21 20:33N 34°36' E 135°09'1110.6
2017-Mar-21 19:31N 34°36' E 134°55'123 4.8
2017-Mar-20 18:05N 34°02' E 132°32'12911.0
2017-Mar-20 06:21N 34°37' E 135°02'911.6
2017-Mar-20 05:33N 34°37' E 135°14'2 2.1
2017-Mar-20 04:33N 34°40' E 135°14'0 0.0
2017-Mar-20 03:33N 34°40' E 135°14'0 0.0
2017-Mar-20 02:33N 34°40' E 135°14'0 0.0
2017-Mar-20 01:33N 34°40' E 135°14'2 2.3
2017-Mar-20 00:33N 34°41' E 135°13'0 0.0
2017-Mar-19 23:33N 34°41' E 135°13'0 0.0
2017-Mar-19 22:33N 34°41' E 135°13'0 0.0
2017-Mar-19 21:33N 34°41' E 135°13'0 0.0
2017-Mar-19 20:33N 34°41' E 135°13'0 0.0
2017-Mar-19 19:33N 34°41' E 135°13'0 0.0
2017-Mar-19 18:33N 34°41' E 135°13'0 0.0
2017-Mar-19 17:33N 34°41' E 135°13'0 0.0
2017-Mar-19 16:33N 34°41' E 135°13'0 0.0
2017-Mar-19 15:33N 34°41' E 135°13'0 0.0
2017-Mar-19 14:33N 34°41' E 135°13'0 0.0
2017-Mar-19 13:33N 34°41' E 135°13'0 0.0
2017-Mar-19 12:33N 34°41' E 135°13'0 0.0
2017-Mar-19 11:33N 34°41' E 135°13'0 0.0
2017-Mar-19 10:33N 34°41' E 135°13'0 0.0
2017-Mar-19 09:33N 34°41' E 135°13'0 0.0
2017-Mar-19 08:33N 34°41' E 135°13'0 0.0
2017-Mar-19 07:33N 34°41' E 135°13'0 0.0
2017-Mar-19 06:33N 34°41' E 135°13'0 0.0
2017-Mar-19 05:33N 34°41' E 135°13'0 0.0
2017-Mar-19 04:33N 34°41' E 135°13'0 0.0
2017-Mar-19 03:33N 34°41' E 135°13'0 0.0
2017-Mar-19 02:33N 34°41' E 135°13'0 0.0
2017-Mar-19 01:33N 34°41' E 135°13'0 0.0
2017-Mar-19 00:33N 34°41' E 135°13'0 0.0
2017-Mar-18 23:33N 34°41' E 135°13'0 0.0
2017-Mar-18 22:33N 34°41' E 135°13'0 0.0
2017-Mar-18 21:33N 34°41' E 135°13'0 0.0
2017-Mar-18 20:33N 34°41' E 135°13'0 0.0
2017-Mar-18 19:33N 34°41' E 135°13'0 0.0
2017-Mar-18 18:33N 34°41' E 135°13'0 0.0
2017-Mar-18 17:33N 34°41' E 135°13'0 0.0
2017-Mar-18 16:33N 34°41' E 135°13'0 0.0
2017-Mar-18 15:33N 34°41' E 135°13'0 0.0
2017-Mar-18 14:33N 34°41' E 135°13'0 0.0
2017-Mar-18 13:33N 34°41' E 135°13'0 0.0
2017-Mar-18 12:33N 34°41' E 135°13'1 1.3
2017-Mar-18 11:33N 34°41' E 135°14'1211.9
2017-Mar-18 10:33N 34°29' E 135°10'1312.7
2017-Mar-18 09:33N 34°19' E 135°01'18 0.8
2017-Mar-17 12:31N 34°35' E 134°53'1111.7
2017-Mar-17 11:33N 34°36' E 135°06'7 7.4
2017-Mar-17 10:33N 34°40' E 135°14'0 0.0
2017-Mar-17 09:33N 34°40' E 135°14'0 0.0
2017-Mar-17 08:33N 34°40' E 135°14'9 9.1
2017-Mar-17 07:33N 34°31' E 135°12'18 9.0
2017-Mar-17 05:33N 34°13' E 135°06'2 2.1
2017-Mar-17 04:34N 34°12' E 135°09'2 1.9
2017-Mar-17 03:34N 34°13' E 135°06'11 9.2
2017-Mar-17 02:22N 34°23' E 135°01'1113.0
2017-Mar-17 01:33N 34°32' E 135°08'9 8.9
2017-Mar-17 00:33N 34°40' E 135°14'  
Track history (hours):
 
Tides and Currents Weather Stations Pressure Air Temp Water Temp Dewpoint Dewpoint Depression Visibility Wind Speed Wind Dir Waves Ship Positions

Koyo

Last reported at 2017-Mar-27 00:33 UTC. Time now 2017-Mar-27 00:40 UTC.
Position N 34°39' E 135°15'.

Length 80 m; draft 3.7 m.

Type: Cargo ship. MMSI: 431301812.

Date/timePositionNaut miles runAvg speedWind from/ knotsBaromVisibWave heightAir tempDewpointWater temp
2017-Mar-27 00:33N 34°39' E 135°15'0 0.1
2017-Mar-26 23:32N 34°39' E 135°15'0 0.0
2017-Mar-26 21:32N 34°39' E 135°15'0 0.0
2017-Mar-26 20:32N 34°39' E 135°15'0 0.1
2017-Mar-26 19:32N 34°39' E 135°15'0 0.1
2017-Mar-26 18:32N 34°39' E 135°15'0 0.0
2017-Mar-26 17:32N 34°39' E 135°15'0 0.1
2017-Mar-26 16:32N 34°39' E 135°15'0 0.0
2017-Mar-26 15:26N 34°39' E 135°15'0 0.1
2017-Mar-26 14:32N 34°39' E 135°15'0 0.0
2017-Mar-26 13:14N 34°39' E 135°15'0 0.5
2017-Mar-26 12:33N 34°38' E 135°15'1110.6
2017-Mar-26 11:33N 34°36' E 135°02'12011.5
2017-Mar-26 01:11N 33°59' E 132°44'913.2
2017-Mar-26 00:33N 33°54' E 132°37'19 0.6
2017-Mar-24 16:31N 33°50' E 132°15'1313.8
2017-Mar-24 15:33N 33°52' E 132°30'12812.7
2017-Mar-24 05:30N 34°37' E 134°56'1010.9
2017-Mar-24 04:33N 34°36' E 135°08'1312.8
2017-Mar-24 03:33N 34°38' E 135°24'1 1.2
2017-Mar-24 02:33N 34°38' E 135°25'6 5.9
2017-Mar-24 01:33N 34°37' E 135°18'4 3.8
2017-Mar-24 00:33N 34°39' E 135°15'1 0.8
2017-Mar-23 23:33N 34°40' E 135°14'1 1.5
2017-Mar-23 22:33N 34°39' E 135°15'10 9.8
2017-Mar-23 21:34N 34°35' E 135°05'9 9.4
2017-Mar-23 20:33N 34°35' E 134°53'121 5.4
2017-Mar-22 22:11N 34°03' E 132°32'11912.3
2017-Mar-22 12:31N 34°35' E 134°51'1111.2
2017-Mar-22 11:31N 34°36' E 135°04'9 9.6
2017-Mar-22 10:33N 34°39' E 135°15'0 0.0
2017-Mar-22 09:33N 34°39' E 135°15'0 0.0
2017-Mar-22 08:33N 34°39' E 135°15'0 0.0
2017-Mar-22 07:33N 34°39' E 135°15'1 0.6
2017-Mar-22 06:33N 34°39' E 135°15'0 0.0
2017-Mar-22 05:33N 34°39' E 135°15'0 0.1
2017-Mar-22 04:33N 34°39' E 135°15'0 0.0
2017-Mar-22 03:33N 34°39' E 135°15'0 0.0
2017-Mar-22 02:33N 34°39' E 135°15'0 0.0
2017-Mar-22 01:33N 34°39' E 135°15'0 0.0
2017-Mar-22 00:33N 34°39' E 135°15'1 0.7
2017-Mar-21 23:33N 34°39' E 135°15'1 0.9
2017-Mar-21 22:33N 34°38' E 135°15'0 0.0
2017-Mar-21 21:33N 34°38' E 135°15'6 5.7
2017-Mar-21 20:33N 34°36' E 135°09'1110.6
2017-Mar-21 19:31N 34°36' E 134°55'123 4.8
2017-Mar-20 18:05N 34°02' E 132°32'12911.0
2017-Mar-20 06:21N 34°37' E 135°02'911.6
2017-Mar-20 05:33N 34°37' E 135°14'2 2.1
2017-Mar-20 04:33N 34°40' E 135°14'0 0.0
2017-Mar-20 03:33N 34°40' E 135°14'0 0.0
2017-Mar-20 02:33N 34°40' E 135°14'0 0.0
2017-Mar-20 01:33N 34°40' E 135°14'2 2.3
2017-Mar-20 00:33N 34°41' E 135°13'0 0.0
2017-Mar-19 23:33N 34°41' E 135°13'0 0.0
2017-Mar-19 22:33N 34°41' E 135°13'0 0.0
2017-Mar-19 21:33N 34°41' E 135°13'0 0.0
2017-Mar-19 20:33N 34°41' E 135°13'0 0.0
2017-Mar-19 19:33N 34°41' E 135°13'0 0.0
2017-Mar-19 18:33N 34°41' E 135°13'0 0.0
2017-Mar-19 17:33N 34°41' E 135°13'0 0.0
2017-Mar-19 16:33N 34°41' E 135°13'0 0.0
2017-Mar-19 15:33N 34°41' E 135°13'0 0.0
2017-Mar-19 14:33N 34°41' E 135°13'0 0.0
2017-Mar-19 13:33N 34°41' E 135°13'0 0.0
2017-Mar-19 12:33N 34°41' E 135°13'0 0.0
2017-Mar-19 11:33N 34°41' E 135°13'0 0.0
2017-Mar-19 10:33N 34°41' E 135°13'0 0.0
2017-Mar-19 09:33N 34°41' E 135°13'0 0.0
2017-Mar-19 08:33N 34°41' E 135°13'0 0.0
2017-Mar-19 07:33N 34°41' E 135°13'0 0.0
2017-Mar-19 06:33N 34°41' E 135°13'0 0.0
2017-Mar-19 05:33N 34°41' E 135°13'0 0.0
2017-Mar-19 04:33N 34°41' E 135°13'0 0.0
2017-Mar-19 03:33N 34°41' E 135°13'0 0.0
2017-Mar-19 02:33N 34°41' E 135°13'0 0.0
2017-Mar-19 01:33N 34°41' E 135°13'0 0.0
2017-Mar-19 00:33N 34°41' E 135°13'0 0.0
2017-Mar-18 23:33N 34°41' E 135°13'0 0.0
2017-Mar-18 22:33N 34°41' E 135°13'0 0.0
2017-Mar-18 21:33N 34°41' E 135°13'0 0.0
2017-Mar-18 20:33N 34°41' E 135°13'0 0.0
2017-Mar-18 19:33N 34°41' E 135°13'0 0.0
2017-Mar-18 18:33N 34°41' E 135°13'0 0.0
2017-Mar-18 17:33N 34°41' E 135°13'0 0.0
2017-Mar-18 16:33N 34°41' E 135°13'0 0.0
2017-Mar-18 15:33N 34°41' E 135°13'0 0.0
2017-Mar-18 14:33N 34°41' E 135°13'0 0.0
2017-Mar-18 13:33N 34°41' E 135°13'0 0.0
2017-Mar-18 12:33N 34°41' E 135°13'1 1.3
2017-Mar-18 11:33N 34°41' E 135°14'1211.9
2017-Mar-18 10:33N 34°29' E 135°10'1312.7
2017-Mar-18 09:33N 34°19' E 135°01'18 0.8
2017-Mar-17 12:31N 34°35' E 134°53'1111.7
2017-Mar-17 11:33N 34°36' E 135°06'7 7.4
2017-Mar-17 10:33N 34°40' E 135°14'0 0.0
2017-Mar-17 09:33N 34°40' E 135°14'0 0.0
2017-Mar-17 08:33N 34°40' E 135°14'9 9.1
2017-Mar-17 07:33N 34°31' E 135°12'18 9.0
2017-Mar-17 05:33N 34°13' E 135°06'2 2.1
2017-Mar-17 04:34N 34°12' E 135°09'2 1.9
2017-Mar-17 03:34N 34°13' E 135°06'11 9.2
2017-Mar-17 02:22N 34°23' E 135°01'1113.0
2017-Mar-17 01:33N 34°32' E 135°08'9 8.9
2017-Mar-17 00:33N 34°40' E 135°14'  

Dump ship's entire track history